sensor_id;sensor_type;location;lat;lon;timestamp;pressure;altitude;pressure_sealevel;temperature;humidity
78745;BME280;68064;53.100;8.824;2023-03-25T00:00:58;100094.44;;;8.71;74.88
78745;BME280;68064;53.100;8.824;2023-03-25T00:02:01;100094.41;;;8.70;75.20
78745;BME280;68064;53.100;8.824;2023-03-25T00:03:02;100088.19;;;8.63;76.70
78745;BME280;68064;53.100;8.824;2023-03-25T00:04:03;100087.72;;;8.73;73.99
78745;BME280;68064;53.100;8.824;2023-03-25T00:05:05;100088.84;;;8.80;73.40
78745;BME280;68064;53.100;8.824;2023-03-25T00:06:07;100083.44;;;8.72;74.44
78745;BME280;68064;53.100;8.824;2023-03-25T00:07:09;100078.31;;;8.72;76.82
78745;BME280;68064;53.100;8.824;2023-03-25T00:08:10;100089.44;;;8.74;78.36
78745;BME280;68064;53.100;8.824;2023-03-25T00:09:11;100087.31;;;8.63;77.32
78745;BME280;68064;53.100;8.824;2023-03-25T00:10:13;100090.78;;;8.65;77.97
78745;BME280;68064;53.100;8.824;2023-03-25T00:11:14;100089.28;;;8.70;78.85
78745;BME280;68064;53.100;8.824;2023-03-25T00:12:15;100095.06;;;8.66;76.82
78745;BME280;68064;53.100;8.824;2023-03-25T00:13:17;100092.94;;;8.76;75.56
78745;BME280;68064;53.100;8.824;2023-03-25T00:14:17;100086.97;;;8.76;75.00
78745;BME280;68064;53.100;8.824;2023-03-25T00:15:18;100101.63;;;8.81;76.70
78745;BME280;68064;53.100;8.824;2023-03-25T00:16:20;100088.75;;;8.78;73.71
78745;BME280;68064;53.100;8.824;2023-03-25T00:17:23;100089.81;;;8.83;76.57
78745;BME280;68064;53.100;8.824;2023-03-25T00:18:26;100092.16;;;8.77;75.01
78745;BME280;68064;53.100;8.824;2023-03-25T00:19:27;100075.19;;;8.79;74.58
78745;BME280;68064;53.100;8.824;2023-03-25T00:20:28;100088.00;;;8.81;74.82
78745;BME280;68064;53.100;8.824;2023-03-25T00:21:30;100077.53;;;8.73;75.03
78745;BME280;68064;53.100;8.824;2023-03-25T00:22:31;100088.28;;;8.88;73.98
78745;BME280;68064;53.100;8.824;2023-03-25T00:23:32;100084.72;;;8.83;75.72
78745;BME280;68064;53.100;8.824;2023-03-25T00:24:33;100080.41;;;8.82;74.66
78745;BME280;68064;53.100;8.824;2023-03-25T00:25:34;100081.28;;;8.83;74.26
78745;BME280;68064;53.100;8.824;2023-03-25T00:26:35;100082.09;;;8.82;74.31
78745;BME280;68064;53.100;8.824;2023-03-25T00:27:36;100077.88;;;8.82;73.81
78745;BME280;68064;53.100;8.824;2023-03-25T00:28:37;100077.75;;;8.79;73.96
78745;BME280;68064;53.100;8.824;2023-03-25T00:29:39;100078.50;;;8.77;76.87
78745;BME280;68064;53.100;8.824;2023-03-25T00:30:41;100078.56;;;8.78;74.36
78745;BME280;68064;53.100;8.824;2023-03-25T00:31:43;100077.88;;;8.82;75.43
78745;BME280;68064;53.100;8.824;2023-03-25T00:32:45;100076.06;;;8.80;74.28
78745;BME280;68064;53.100;8.824;2023-03-25T00:33:46;100082.91;;;8.81;77.27
78745;BME280;68064;53.100;8.824;2023-03-25T00:34:47;100073.34;;;8.75;74.57
78745;BME280;68064;53.100;8.824;2023-03-25T00:35:51;100082.38;;;8.89;76.45
78745;BME280;68064;53.100;8.824;2023-03-25T00:36:52;100078.91;;;8.87;77.25
78745;BME280;68064;53.100;8.824;2023-03-25T00:37:53;100087.38;;;8.86;75.01
78745;BME280;68064;53.100;8.824;2023-03-25T00:38:54;100076.22;;;8.84;75.94
78745;BME280;68064;53.100;8.824;2023-03-25T00:39:56;100079.66;;;8.85;74.21
78745;BME280;68064;53.100;8.824;2023-03-25T00:40:57;100080.47;;;8.84;73.50
78745;BME280;68064;53.100;8.824;2023-03-25T00:41:58;100081.44;;;8.87;73.00
78745;BME280;68064;53.100;8.824;2023-03-25T00:42:59;100083.41;;;8.94;76.89
78745;BME280;68064;53.100;8.824;2023-03-25T00:44:02;100084.94;;;8.89;75.35
78745;BME280;68064;53.100;8.824;2023-03-25T00:45:04;100074.00;;;8.93;76.72
78745;BME280;68064;53.100;8.824;2023-03-25T00:46:05;100068.69;;;8.87;74.22
78745;BME280;68064;53.100;8.824;2023-03-25T00:47:07;100077.31;;;8.91;72.93
78745;BME280;68064;53.100;8.824;2023-03-25T00:48:09;100068.69;;;8.87;74.91
78745;BME280;68064;53.100;8.824;2023-03-25T00:49:10;100077.22;;;8.88;73.87
78745;BME280;68064;53.100;8.824;2023-03-25T00:50:11;100073.78;;;8.87;74.20
78745;BME280;68064;53.100;8.824;2023-03-25T00:51:12;100069.66;;;8.91;75.06
78745;BME280;68064;53.100;8.824;2023-03-25T00:52:14;100081.63;;;8.92;73.78
78745;BME280;68064;53.100;8.824;2023-03-25T00:53:15;100077.50;;;8.95;72.87
78745;BME280;68064;53.100;8.824;2023-03-25T00:54:16;100069.84;;;8.95;73.18
78745;BME280;68064;53.100;8.824;2023-03-25T00:55:17;100073.41;;;8.99;75.88
78745;BME280;68064;53.100;8.824;2023-03-25T00:56:18;100065.66;;;8.97;75.87
78745;BME280;68064;53.100;8.824;2023-03-25T00:57:19;100063.88;;;8.95;73.78
78745;BME280;68064;53.100;8.824;2023-03-25T00:58:20;100080.00;;;8.94;74.38
78745;BME280;68064;53.100;8.824;2023-03-25T00:59:21;100068.88;;;8.92;75.39
78745;BME280;68064;53.100;8.824;2023-03-25T01:00:22;100069.16;;;8.99;74.39
78745;BME280;68064;53.100;8.824;2023-03-25T01:01:25;100072.44;;;8.97;74.69
78745;BME280;68064;53.100;8.824;2023-03-25T01:02:26;100072.53;;;8.98;73.38
78745;BME280;68064;53.100;8.824;2023-03-25T01:03:29;100068.19;;;8.96;73.59
78745;BME280;68064;53.100;8.824;2023-03-25T01:04:30;100072.41;;;8.95;74.77
78745;BME280;68064;53.100;8.824;2023-03-25T01:05:31;100063.94;;;8.96;73.64
78745;BME280;68064;53.100;8.824;2023-03-25T01:06:33;100069.97;;;8.98;75.22
78745;BME280;68064;53.100;8.824;2023-03-25T01:07:35;100068.28;;;8.99;73.77
78745;BME280;68064;53.100;8.824;2023-03-25T01:08:36;100074.28;;;8.99;72.37
78745;BME280;68064;53.100;8.824;2023-03-25T01:09:38;100072.66;;;9.03;72.99
78745;BME280;68064;53.100;8.824;2023-03-25T01:10:39;100062.31;;;8.98;73.21
78745;BME280;68064;53.100;8.824;2023-03-25T01:11:42;100063.19;;;8.99;72.86
78745;BME280;68064;53.100;8.824;2023-03-25T01:12:43;100076.81;;;8.99;74.31
78745;BME280;68064;53.100;8.824;2023-03-25T01:13:44;100082.03;;;9.02;75.67
78745;BME280;68064;53.100;8.824;2023-03-25T01:14:45;100078.72;;;9.05;72.95
78745;BME280;68064;53.100;8.824;2023-03-25T01:15:47;100072.56;;;9.00;74.66
78745;BME280;68064;53.100;8.824;2023-03-25T01:16:48;100067.44;;;9.00;73.26
78745;BME280;68064;53.100;8.824;2023-03-25T01:17:49;100066.50;;;8.96;73.84
78745;BME280;68064;53.100;8.824;2023-03-25T01:18:52;100065.88;;;9.03;75.70
78745;BME280;68064;53.100;8.824;2023-03-25T01:19:53;100068.19;;;8.96;75.08
78745;BME280;68064;53.100;8.824;2023-03-25T01:20:54;100064.91;;;9.00;73.38
78745;BME280;68064;53.100;8.824;2023-03-25T01:21:55;100062.31;;;8.98;74.66
78745;BME280;68064;53.100;8.824;2023-03-25T01:22:56;100051.19;;;8.96;75.11
78745;BME280;68064;53.100;8.824;2023-03-25T01:23:57;100052.78;;;8.94;74.99
78745;BME280;68064;53.100;8.824;2023-03-25T01:24:58;100057.09;;;8.95;74.02
78745;BME280;68064;53.100;8.824;2023-03-25T01:26:00;100060.56;;;8.97;74.71
78745;BME280;68064;53.100;8.824;2023-03-25T01:27:01;100057.19;;;8.98;73.55
78745;BME280;68064;53.100;8.824;2023-03-25T01:28:03;100062.31;;;8.98;73.99
78745;BME280;68064;53.100;8.824;2023-03-25T01:29:04;100055.56;;;9.00;74.58
78745;BME280;68064;53.100;8.824;2023-03-25T01:30:06;100058.06;;;8.99;74.45
78745;BME280;68064;53.100;8.824;2023-03-25T01:31:10;100058.00;;;8.97;73.56
78745;BME280;68064;53.100;8.824;2023-03-25T01:32:11;100050.56;;;9.03;75.03
78745;BME280;68064;53.100;8.824;2023-03-25T01:33:12;100056.41;;;8.99;74.86
78745;BME280;68064;53.100;8.824;2023-03-25T01:34:15;100052.13;;;9.00;73.42
78745;BME280;68064;53.100;8.824;2023-03-25T01:35:16;100054.78;;;9.03;74.60
78745;BME280;68064;53.100;8.824;2023-03-25T01:36:17;100058.34;;;9.07;75.15
78745;BME280;68064;53.100;8.824;2023-03-25T01:37:18;100049.69;;;9.03;73.76
78745;BME280;68064;53.100;8.824;2023-03-25T01:38:19;100052.31;;;9.04;73.32
78745;BME280;68064;53.100;8.824;2023-03-25T01:39:20;100049.66;;;9.01;73.25
78745;BME280;68064;53.100;8.824;2023-03-25T01:40:22;100054.69;;;9.00;73.86
78745;BME280;68064;53.100;8.824;2023-03-25T01:41:23;100045.31;;;8.99;74.83
78745;BME280;68064;53.100;8.824;2023-03-25T01:42:24;100051.34;;;9.01;75.35
78745;BME280;68064;53.100;8.824;2023-03-25T01:43:25;100044.53;;;9.01;73.74
78745;BME280;68064;53.100;8.824;2023-03-25T01:46:04;100038.69;;;9.04;73.77
78745;BME280;68064;53.100;8.824;2023-03-25T01:47:05;100034.38;;;9.03;74.18
78745;BME280;68064;53.100;8.824;2023-03-25T01:48:09;100034.25;;;9.00;73.91
78745;BME280;68064;53.100;8.824;2023-03-25T01:49:16;100044.72;;;9.06;74.35
78745;BME280;68064;53.100;8.824;2023-03-25T01:50:19;100045.47;;;9.03;73.41
78745;BME280;68064;53.100;8.824;2023-03-25T01:51:23;100038.75;;;9.06;73.49
78745;BME280;68064;53.100;8.824;2023-03-25T01:52:27;100022.38;;;9.00;73.33
78745;BME280;68064;53.100;8.824;2023-03-25T01:53:29;100037.69;;;9.00;74.35
78745;BME280;68064;53.100;8.824;2023-03-25T01:54:31;100029.28;;;9.03;74.44
78745;BME280;68064;53.100;8.824;2023-03-25T01:55:34;100030.16;;;9.03;74.51
78745;BME280;68064;53.100;8.824;2023-03-25T01:56:39;100031.09;;;9.06;73.31
78745;BME280;68064;53.100;8.824;2023-03-25T01:57:42;100031.81;;;9.03;75.01
78745;BME280;68064;53.100;8.824;2023-03-25T01:58:43;100021.56;;;9.01;73.18
78745;BME280;68064;53.100;8.824;2023-03-25T01:59:45;100028.47;;;9.04;73.95
78745;BME280;68064;53.100;8.824;2023-03-25T02:00:47;100028.31;;;8.99;73.84
78745;BME280;68064;53.100;8.824;2023-03-25T02:01:50;100032.66;;;9.02;74.56
78745;BME280;68064;53.100;8.824;2023-03-25T02:02:52;100034.53;;;9.06;73.81
78745;BME280;68064;53.100;8.824;2023-03-25T04:53:35;100011.53;;;8.60;76.26
78745;BME280;68064;53.100;8.824;2023-03-25T04:54:38;100015.75;;;8.60;75.67
78745;BME280;68064;53.100;8.824;2023-03-25T04:55:39;100014.13;;;8.62;76.08
78745;BME280;68064;53.100;8.824;2023-03-25T04:56:40;100007.13;;;8.56;75.63
78745;BME280;68064;53.100;8.824;2023-03-25T04:57:42;100008.00;;;8.57;75.95
78745;BME280;68064;53.100;8.824;2023-03-25T04:58:44;100009.91;;;8.62;74.69
78745;BME280;68064;53.100;8.824;2023-03-25T04:59:48;99999.59;;;8.59;75.00
78745;BME280;68064;53.100;8.824;2023-03-25T05:00:50;100010.84;;;8.64;75.14
78745;BME280;68064;53.100;8.824;2023-03-25T05:01:51;100004.91;;;8.65;74.25
78745;BME280;68064;53.100;8.824;2023-03-25T05:02:54;100009.03;;;8.62;75.64
78745;BME280;68064;53.100;8.824;2023-03-25T05:03:57;100011.66;;;8.63;75.03
78745;BME280;68064;53.100;8.824;2023-03-25T05:04:58;100010.78;;;8.63;74.81
78745;BME280;68064;53.100;8.824;2023-03-25T05:05:59;99997.78;;;8.57;74.44
78745;BME280;68064;53.100;8.824;2023-03-25T05:07:00;99997.78;;;8.57;74.74
78745;BME280;68064;53.100;8.824;2023-03-25T05:08:02;99997.75;;;8.55;75.57
78745;BME280;68064;53.100;8.824;2023-03-25T05:09:07;99990.84;;;8.52;75.38
78745;BME280;68064;53.100;8.824;2023-03-25T05:10:08;100010.78;;;8.63;76.45
78745;BME280;68064;53.100;8.824;2023-03-25T05:11:09;100012.44;;;8.62;75.40
78745;BME280;68064;53.100;8.824;2023-03-25T05:12:11;100011.47;;;8.59;76.80
78745;BME280;68064;53.100;8.824;2023-03-25T05:13:17;100003.59;;;8.52;76.38
78745;BME280;68064;53.100;8.824;2023-03-25T05:14:20;99996.88;;;8.55;75.70
78745;BME280;68064;53.100;8.824;2023-03-25T05:15:21;100023.50;;;8.61;75.60
78745;BME280;68064;53.100;8.824;2023-03-25T05:16:22;100015.00;;;8.62;75.67
78745;BME280;68064;53.100;8.824;2023-03-25T05:17:23;100010.50;;;8.55;75.18
78745;BME280;68064;53.100;8.824;2023-03-25T05:18:24;100009.78;;;8.59;75.64
78745;BME280;68064;53.100;8.824;2023-03-25T05:19:25;100014.19;;;8.63;74.90
78745;BME280;68064;53.100;8.824;2023-03-25T05:20:26;100006.25;;;8.56;74.78
78745;BME280;68064;53.100;8.824;2023-03-25T05:21:28;100009.69;;;8.56;75.97
78745;BME280;68064;53.100;8.824;2023-03-25T05:22:29;100016.53;;;8.57;75.09
78745;BME280;68064;53.100;8.824;2023-03-25T05:23:33;100014.56;;;8.50;76.54
78745;BME280;68064;53.100;8.824;2023-03-25T05:24:41;100003.34;;;8.46;75.37
78745;BME280;68064;53.100;8.824;2023-03-25T05:25:50;100009.69;;;8.56;75.33
78745;BME280;68064;53.100;8.824;2023-03-25T05:26:51;100019.19;;;8.60;75.07
78745;BME280;68064;53.100;8.824;2023-03-25T05:27:52;100010.63;;;8.58;75.66
78745;BME280;68064;53.100;8.824;2023-03-25T05:28:53;100013.97;;;8.57;75.09
78745;BME280;68064;53.100;8.824;2023-03-25T05:29:55;100001.66;;;8.45;75.93
78745;BME280;68064;53.100;8.824;2023-03-25T05:30:56;100015.53;;;8.54;76.20
78745;BME280;68064;53.100;8.824;2023-03-25T05:31:57;100022.53;;;8.59;74.58
78745;BME280;68064;53.100;8.824;2023-03-25T05:32:58;100010.44;;;8.54;74.92
78745;BME280;68064;53.100;8.824;2023-03-25T05:33:59;100011.34;;;8.56;75.27
78745;BME280;68064;53.100;8.824;2023-03-25T05:35:02;100002.78;;;8.54;74.84
78745;BME280;68064;53.100;8.824;2023-03-25T05:36:04;100016.31;;;8.51;75.40
78745;BME280;68064;53.100;8.824;2023-03-25T05:37:05;100006.84;;;8.48;75.11
78745;BME280;68064;53.100;8.824;2023-03-25T05:38:07;100015.84;;;8.61;74.39
78745;BME280;68064;53.100;8.824;2023-03-25T05:39:09;100015.00;;;8.62;74.05
78745;BME280;68064;53.100;8.824;2023-03-25T05:40:19;100018.28;;;8.58;75.94
78745;BME280;68064;53.100;8.824;2023-03-25T05:41:25;99999.31;;;8.52;74.67
78745;BME280;68064;53.100;8.824;2023-03-25T05:42:26;100007.00;;;8.53;74.51
78745;BME280;68064;53.100;8.824;2023-03-25T05:43:28;100015.47;;;8.52;74.95
78745;BME280;68064;53.100;8.824;2023-03-25T05:44:29;100018.00;;;8.52;76.00
78745;BME280;68064;53.100;8.824;2023-03-25T05:45:36;100005.91;;;8.46;73.93
78745;BME280;68064;53.100;8.824;2023-03-25T05:46:37;100019.88;;;8.56;74.55
78745;BME280;68064;53.100;8.824;2023-03-25T05:47:39;100012.13;;;8.53;75.27
78745;BME280;68064;53.100;8.824;2023-03-25T05:48:40;100020.00;;;8.59;75.12
78745;BME280;68064;53.100;8.824;2023-03-25T05:49:41;100012.88;;;8.50;74.97
78745;BME280;68064;53.100;8.824;2023-03-25T05:50:42;100005.16;;;8.49;74.21
78745;BME280;68064;53.100;8.824;2023-03-25T05:51:43;100015.53;;;8.54;74.02
78745;BME280;68064;53.100;8.824;2023-03-25T05:52:44;100014.84;;;8.58;74.37
78745;BME280;68064;53.100;8.824;2023-03-25T05:53:48;100023.38;;;8.58;75.94
78745;BME280;68064;53.100;8.824;2023-03-25T05:54:49;100007.69;;;8.49;74.42
78745;BME280;68064;53.100;8.824;2023-03-25T05:55:52;100018.84;;;8.51;74.80
78745;BME280;68064;53.100;8.824;2023-03-25T05:56:53;100014.63;;;8.52;74.71
78745;BME280;68064;53.100;8.824;2023-03-25T05:57:54;100016.31;;;8.51;75.47
78745;BME280;68064;53.100;8.824;2023-03-25T05:58:56;100019.88;;;8.56;75.13
78745;BME280;68064;53.100;8.824;2023-03-25T06:00:09;100020.41;;;8.47;75.02
78745;BME280;68064;53.100;8.824;2023-03-25T06:01:14;100028.59;;;8.61;75.25
78745;BME280;68064;53.100;8.824;2023-03-25T06:02:16;100031.84;;;8.57;75.31
78745;BME280;68064;53.100;8.824;2023-03-25T06:03:18;100015.25;;;8.46;76.14
78745;BME280;68064;53.100;8.824;2023-03-25T06:04:19;100025.94;;;8.58;74.64
78745;BME280;68064;53.100;8.824;2023-03-25T06:05:20;100026.03;;;8.61;74.72
78745;BME280;68064;53.100;8.824;2023-03-25T06:06:21;100026.84;;;8.60;74.42
78745;BME280;68064;53.100;8.824;2023-03-25T06:07:22;100032.06;;;8.63;74.95
78745;BME280;68064;53.100;8.824;2023-03-25T06:08:23;100026.16;;;8.64;74.00
78745;BME280;68064;53.100;8.824;2023-03-25T06:09:24;100013.91;;;8.56;73.81
78745;BME280;68064;53.100;8.824;2023-03-25T06:10:25;100036.28;;;8.63;75.03
78745;BME280;68064;53.100;8.824;2023-03-25T06:11:28;100013.06;;;8.55;74.61
78745;BME280;68064;53.100;8.824;2023-03-25T06:12:30;100018.38;;;8.61;74.04
78745;BME280;68064;53.100;8.824;2023-03-25T06:13:35;100015.84;;;8.61;73.67
78745;BME280;68064;53.100;8.824;2023-03-25T06:14:36;100014.84;;;8.58;74.33
78745;BME280;68064;53.100;8.824;2023-03-25T06:15:37;100029.44;;;8.62;74.51
78745;BME280;68064;53.100;8.824;2023-03-25T06:16:38;100032.75;;;8.59;75.59
78745;BME280;68064;53.100;8.824;2023-03-25T06:17:40;100033.81;;;8.64;74.53
78745;BME280;68064;53.100;8.824;2023-03-25T06:18:41;100025.09;;;8.59;73.92
78745;BME280;68064;53.100;8.824;2023-03-25T06:19:42;100029.63;;;8.66;74.44
78745;BME280;68064;53.100;8.824;2023-03-25T06:20:43;100030.38;;;8.64;74.28
78745;BME280;68064;53.100;8.824;2023-03-25T06:21:44;100020.75;;;8.57;74.64
78745;BME280;68064;53.100;8.824;2023-03-25T06:22:45;100019.19;;;8.60;74.01
78745;BME280;68064;53.100;8.824;2023-03-25T06:23:47;100031.41;;;8.69;73.88
78745;BME280;68064;53.100;8.824;2023-03-25T06:24:48;100020.88;;;8.60;74.04
78745;BME280;68064;53.100;8.824;2023-03-25T06:25:49;100030.38;;;8.64;74.20
78745;BME280;68064;53.100;8.824;2023-03-25T06:26:52;100016.56;;;8.59;73.83
78745;BME280;68064;53.100;8.824;2023-03-25T06:27:53;100029.44;;;8.62;74.18
78745;BME280;68064;53.100;8.824;2023-03-25T06:28:54;100028.72;;;8.64;74.98
78745;BME280;68064;53.100;8.824;2023-03-25T06:29:55;100026.97;;;8.63;75.28
78745;BME280;68064;53.100;8.824;2023-03-25T06:30:56;100025.81;;;8.55;74.81
78745;BME280;68064;53.100;8.824;2023-03-25T06:31:57;100029.44;;;8.62;74.98
78745;BME280;68064;53.100;8.824;2023-03-25T06:32:59;100030.19;;;8.59;75.73
78745;BME280;68064;53.100;8.824;2023-03-25T06:34:00;100033.97;;;8.69;74.00
78745;BME280;68064;53.100;8.824;2023-03-25T06:35:01;100031.41;;;8.69;74.01
78745;BME280;68064;53.100;8.824;2023-03-25T06:36:02;100041.72;;;8.72;73.70
78745;BME280;68064;53.100;8.824;2023-03-25T06:37:03;100033.81;;;8.64;75.47
78745;BME280;68064;53.100;8.824;2023-03-25T06:38:05;100040.81;;;8.70;74.66
78745;BME280;68064;53.100;8.824;2023-03-25T06:39:06;100044.25;;;8.70;74.06
78745;BME280;68064;53.100;8.824;2023-03-25T06:40:10;100035.03;;;8.74;74.27
78745;BME280;68064;53.100;8.824;2023-03-25T06:41:12;100046.06;;;8.74;74.22
78745;BME280;68064;53.100;8.824;2023-03-25T06:42:14;100041.91;;;8.76;74.92
78745;BME280;68064;53.100;8.824;2023-03-25T06:43:15;100031.38;;;8.67;74.88
78745;BME280;68064;53.100;8.824;2023-03-25T06:44:16;100040.16;;;8.75;74.30
78745;BME280;68064;53.100;8.824;2023-03-25T06:45:17;100023.75;;;8.69;74.06
78745;BME280;68064;53.100;8.824;2023-03-25T06:46:18;100028.22;;;8.74;74.25
78745;BME280;68064;53.100;8.824;2023-03-25T06:47:20;100036.00;;;8.77;75.01
78745;BME280;68064;53.100;8.824;2023-03-25T06:48:21;100030.06;;;8.78;75.14
78745;BME280;68064;53.100;8.824;2023-03-25T06:49:25;100025.53;;;8.71;74.11
78745;BME280;68064;53.100;8.824;2023-03-25T06:50:26;100027.41;;;8.75;75.24
78745;BME280;68064;53.100;8.824;2023-03-25T06:51:27;100028.22;;;8.74;75.74
78745;BME280;68064;53.100;8.824;2023-03-25T06:52:28;100039.47;;;8.79;75.77
78745;BME280;68064;53.100;8.824;2023-03-25T06:53:29;100021.31;;;8.72;74.41
78745;BME280;68064;53.100;8.824;2023-03-25T06:54:36;100036.34;;;8.86;73.81
78745;BME280;68064;53.100;8.824;2023-03-25T06:55:41;100037.84;;;8.81;74.22
78745;BME280;68064;53.100;8.824;2023-03-25T06:56:42;100028.50;;;8.82;74.40
78745;BME280;68064;53.100;8.824;2023-03-25T06:57:45;100027.53;;;8.78;74.34
78745;BME280;68064;53.100;8.824;2023-03-25T06:58:46;100045.03;;;8.91;73.77
78745;BME280;68064;53.100;8.824;2023-03-25T06:59:47;100041.72;;;8.94;73.41
78745;BME280;68064;53.100;8.824;2023-03-25T07:00:52;100016.63;;;8.82;74.36
78745;BME280;68064;53.100;8.824;2023-03-25T07:01:53;100020.97;;;8.85;74.01
78745;BME280;68064;53.100;8.824;2023-03-25T07:02:54;100045.25;;;8.97;73.67
78745;BME280;68064;53.100;8.824;2023-03-25T07:03:55;100039.25;;;8.97;73.99
78745;BME280;68064;53.100;8.824;2023-03-25T07:04:56;100041.81;;;8.97;74.11
78745;BME280;68064;53.100;8.824;2023-03-25T07:05:57;100023.09;;;8.96;73.68
78745;BME280;68064;53.100;8.824;2023-03-25T07:06:58;100028.31;;;8.99;73.53
78745;BME280;68064;53.100;8.824;2023-03-25T07:07:59;100031.69;;;8.98;74.30
78745;BME280;68064;53.100;8.824;2023-03-25T07:09:03;100042.09;;;9.04;73.66
78745;BME280;68064;53.100;8.824;2023-03-25T07:10:09;100032.59;;;9.00;73.56
78745;BME280;68064;53.100;8.824;2023-03-25T07:11:12;100037.09;;;9.08;73.48
78745;BME280;68064;53.100;8.824;2023-03-25T07:12:14;100035.47;;;9.10;73.31
78745;BME280;68064;53.100;8.824;2023-03-25T07:13:16;100028.66;;;9.09;73.29
78745;BME280;68064;53.100;8.824;2023-03-25T07:14:17;100030.16;;;9.03;72.84
78745;BME280;68064;53.100;8.824;2023-03-25T07:15:18;100024.16;;;9.03;72.96
78745;BME280;68064;53.100;8.824;2023-03-25T07:16:19;100032.97;;;9.11;73.43
78745;BME280;68064;53.100;8.824;2023-03-25T07:17:20;100028.06;;;9.16;73.43
78745;BME280;68064;53.100;8.824;2023-03-25T07:18:22;100027.06;;;9.12;73.48
78745;BME280;68064;53.100;8.824;2023-03-25T07:19:23;100032.28;;;9.15;73.18
78745;BME280;68064;53.100;8.824;2023-03-25T07:20:24;100045.16;;;9.18;73.18
78745;BME280;68064;53.100;8.824;2023-03-25T07:21:29;100032.41;;;9.18;72.80
78745;BME280;68064;53.100;8.824;2023-03-25T07:22:30;100030.53;;;9.14;73.00
78745;BME280;68064;53.100;8.824;2023-03-25T07:23:40;100022.00;;;9.14;73.26
78745;BME280;68064;53.100;8.824;2023-03-25T07:24:41;100027.28;;;9.18;73.20
78745;BME280;68064;53.100;8.824;2023-03-25T07:25:42;100030.75;;;9.20;73.26
78745;BME280;68064;53.100;8.824;2023-03-25T07:26:44;100029.06;;;9.21;73.12
78745;BME280;68064;53.100;8.824;2023-03-25T07:27:45;100038.47;;;9.22;72.76
78745;BME280;68064;53.100;8.824;2023-03-25T07:28:47;100041.94;;;9.24;73.46
78745;BME280;68064;53.100;8.824;2023-03-25T07:29:48;100034.28;;;9.24;73.27
78745;BME280;68064;53.100;8.824;2023-03-25T07:30:50;100035.25;;;9.27;73.31
78745;BME280;68064;53.100;8.824;2023-03-25T07:31:51;100037.81;;;9.27;73.10
78745;BME280;68064;53.100;8.824;2023-03-25T07:32:52;100036.19;;;9.29;73.45
78745;BME280;68064;53.100;8.824;2023-03-25T07:33:53;100032.75;;;9.29;72.61
78745;BME280;68064;53.100;8.824;2023-03-25T07:34:54;100052.34;;;9.28;73.09
78745;BME280;68064;53.100;8.824;2023-03-25T07:35:55;100038.69;;;9.28;73.55
78745;BME280;68064;53.100;8.824;2023-03-25T07:36:56;100028.25;;;9.22;73.00
78745;BME280;68064;53.100;8.824;2023-03-25T07:37:57;100034.38;;;9.27;73.08
78745;BME280;68064;53.100;8.824;2023-03-25T07:38:58;100033.63;;;9.29;72.74
78745;BME280;68064;53.100;8.824;2023-03-25T07:39:59;100031.91;;;9.28;73.24
78745;BME280;68064;53.100;8.824;2023-03-25T07:41:04;100047.06;;;9.24;73.28
78745;BME280;68064;53.100;8.824;2023-03-25T07:42:05;100053.19;;;9.29;73.02
78745;BME280;68064;53.100;8.824;2023-03-25T07:43:06;100044.56;;;9.25;73.67
78745;BME280;68064;53.100;8.824;2023-03-25T07:44:08;100042.81;;;9.24;74.19
78745;BME280;68064;53.100;8.824;2023-03-25T07:45:10;100043.69;;;9.25;74.23
78745;BME280;68064;53.100;8.824;2023-03-25T07:46:11;100042.97;;;9.29;73.36
78745;BME280;68064;53.100;8.824;2023-03-25T07:47:12;100044.81;;;9.33;73.15
78745;BME280;68064;53.100;8.824;2023-03-25T07:48:13;100043.22;;;9.35;72.86
78745;BME280;68064;53.100;8.824;2023-03-25T07:49:15;100049.13;;;9.34;74.03
78745;BME280;68064;53.100;8.824;2023-03-25T07:50:17;100048.91;;;9.28;74.55
78745;BME280;68064;53.100;8.824;2023-03-25T07:51:18;100043.94;;;9.32;73.85
78745;BME280;68064;53.100;8.824;2023-03-25T07:52:19;100044.81;;;9.33;73.86
78745;BME280;68064;53.100;8.824;2023-03-25T07:53:20;100049.13;;;9.34;73.70
78745;BME280;68064;53.100;8.824;2023-03-25T07:54:21;100050.69;;;9.30;74.14
78745;BME280;68064;53.100;8.824;2023-03-25T07:55:22;100039.59;;;9.30;73.36
78745;BME280;68064;53.100;8.824;2023-03-25T07:56:23;100049.13;;;9.34;73.53
78745;BME280;68064;53.100;8.824;2023-03-25T07:57:24;100052.47;;;9.33;74.15
78745;BME280;68064;53.100;8.824;2023-03-25T07:58:25;100054.22;;;9.34;73.55
78745;BME280;68064;53.100;8.824;2023-03-25T07:59:28;100056.09;;;9.38;73.27
78745;BME280;68064;53.100;8.824;2023-03-25T08:00:29;100059.38;;;9.35;74.52
78745;BME280;68064;53.100;8.824;2023-03-25T08:01:30;100056.88;;;9.37;74.29
78745;BME280;68064;53.100;8.824;2023-03-25T08:02:31;100062.00;;;9.37;73.20
78745;BME280;68064;53.100;8.824;2023-03-25T08:03:33;100073.84;;;9.35;73.83
78745;BME280;68064;53.100;8.824;2023-03-25T08:04:34;100075.44;;;9.31;73.38
78745;BME280;68064;53.100;8.824;2023-03-25T08:05:46;100074.47;;;9.29;73.57
78745;BME280;68064;53.100;8.824;2023-03-25T08:06:49;100064.00;;;9.22;74.15
78745;BME280;68064;53.100;8.824;2023-03-25T08:07:50;100061.69;;;9.28;74.62
78745;BME280;68064;53.100;8.824;2023-03-25T08:08:53;100064.22;;;9.28;73.49
78745;BME280;68064;53.100;8.824;2023-03-25T08:09:54;100075.97;;;9.00;73.76
78745;BME280;68064;53.100;8.824;2023-03-25T08:10:56;100073.88;;;9.13;74.00
78745;BME280;68064;53.100;8.824;2023-03-25T08:11:57;100065.59;;;9.18;74.55
78745;BME280;68064;53.100;8.824;2023-03-25T08:12:58;100080.44;;;9.28;74.05
78745;BME280;68064;53.100;8.824;2023-03-25T08:13:59;100072.19;;;8.89;73.47
78745;BME280;68064;53.100;8.824;2023-03-25T08:15:03;100076.97;;;9.04;74.86
78745;BME280;68064;53.100;8.824;2023-03-25T08:16:09;100094.47;;;9.17;73.94
78745;BME280;68064;53.100;8.824;2023-03-25T08:17:14;100073.72;;;9.08;74.80
78745;BME280;68064;53.100;8.824;2023-03-25T08:18:15;100074.41;;;9.04;75.15
78745;BME280;68064;53.100;8.824;2023-03-25T08:19:16;100047.06;;;8.78;75.52